createdAt,value
2023-05-25T14:42:28.196Z,956.6799316
2023-05-25T14:43:29.931Z,956.6662598
2023-05-25T14:44:30.746Z,956.7091675
2023-05-25T14:45:32.312Z,956.694458
2023-05-25T14:46:33.233Z,956.7878418
2023-05-25T14:47:35.049Z,956.7960815
2023-05-25T14:48:35.939Z,956.8562622
2023-05-25T14:49:37.519Z,956.774231
2023-05-25T14:50:39.342Z,956.8498535
2023-05-25T14:51:40.238Z,956.8181152
2023-05-25T14:53:11.681Z,956.8269043
2023-05-25T14:54:12.481Z,956.8125
2023-05-25T14:55:13.706Z,956.7834473
2023-05-25T14:56:14.477Z,956.8162231
2023-05-25T14:57:15.968Z,956.8311157
2023-05-25T14:58:16.929Z,956.8394775
2023-05-25T14:59:18.472Z,956.8152466
2023-05-25T15:00:19.907Z,956.7876587
2023-05-25T15:01:21.940Z,956.8051758
2023-05-25T15:02:21.809Z,956.8139038
2023-05-25T15:03:24.068Z,956.850647
2023-05-25T15:04:24.007Z,956.8287354
2023-05-25T15:05:25.447Z,956.8198242
2023-05-25T15:06:26.908Z,956.8535767
2023-05-25T15:07:27.802Z,956.8682861
2023-05-25T15:08:28.789Z,956.8326416
2023-05-25T15:09:29.733Z,956.8695068
2023-05-25T15:10:31.314Z,956.8331299
2023-05-25T15:11:32.111Z,956.899353
2023-05-25T15:12:33.442Z,956.8283691
2023-05-25T15:13:35.005Z,956.8345337
2023-05-25T15:14:36.488Z,956.9343872
2023-05-25T15:15:37.472Z,956.9359131
2023-05-25T15:16:38.390Z,956.9145508
2023-05-25T15:17:39.892Z,956.9282837
2023-05-25T15:19:13.287Z,956.9025269
2023-05-25T15:20:43.721Z,956.9293213
2023-05-25T15:22:14.825Z,956.9940796
2023-05-25T15:23:15.633Z,956.9488525
2023-05-25T15:24:17.516Z,957.0167847
2023-05-25T15:25:24.454Z,957.0005493
2023-05-25T15:26:20.571Z,957.0093994
2023-05-25T15:27:21.870Z,956.9934082
2023-05-25T15:28:23.236Z,957.0228882
2023-05-25T15:29:25.101Z,956.9835815
2023-05-25T15:30:28.026Z,956.9537354
2023-05-25T15:31:29.357Z,956.9542236
2023-05-25T15:32:30.275Z,956.9718018
2023-05-25T15:33:48.332Z,956.9770508
2023-05-25T15:34:33.101Z,956.982666
2023-05-25T15:35:34.200Z,956.9713135
2023-05-25T15:36:35.523Z,956.984375
2023-05-25T15:37:37.536Z,956.9595337
2023-05-25T15:38:38.413Z,956.9456177
2023-05-25T15:39:39.199Z,956.9590454
2023-05-25T15:41:11.155Z,956.9508057
2023-05-25T15:42:12.453Z,956.9937744
2023-05-25T15:43:13.716Z,956.9848633
2023-05-25T15:44:15.437Z,957.006897
2023-05-25T15:45:16.677Z,957.0098267
2023-05-25T15:46:17.398Z,957.0541382
2023-05-25T15:47:18.964Z,957.0102539
2023-05-25T15:48:19.877Z,957.0998535
2023-05-25T15:49:20.647Z,957.0630493
2023-05-25T15:50:22.482Z,957.0557251
2023-05-25T15:51:23.248Z,956.994873
2023-05-25T15:52:24.893Z,957.0301514
2023-05-25T15:53:25.722Z,957.0231323
2023-05-25T15:54:26.519Z,957.034668
2023-05-25T15:55:27.247Z,957.0256348
2023-05-25T15:56:28.015Z,957.0236206
2023-05-25T15:57:28.792Z,957.0689087
2023-05-25T15:58:29.571Z,957.0472412
2023-05-25T15:59:31.342Z,957.0427856
2023-05-25T16:00:32.972Z,957.0395508
2023-05-25T16:01:33.744Z,957.0193481
2023-05-25T16:02:35.454Z,957.0285645
2023-05-25T16:03:36.319Z,957.0424194
2023-05-25T16:04:37.064Z,957.0459595
2023-05-25T16:05:37.918Z,957.0484619
2023-05-25T16:06:38.677Z,957.0549927
2023-05-25T16:07:40.426Z,957.0209961
2023-05-25T16:09:11.555Z,957.024353
2023-05-25T16:10:12.284Z,957.0581055
2023-05-25T16:11:13.859Z,957.0504761
2023-05-25T16:12:14.544Z,957.0651855
2023-05-25T16:13:15.940Z,957.0384521
2023-05-25T16:14:17.426Z,957.0147095
2023-05-25T16:15:18.215Z,957.0513916
2023-05-25T16:16:19.074Z,957.0477905
2023-05-25T16:17:20.548Z,957.0620117
2023-05-25T16:18:21.188Z,957.0650024
2023-05-25T16:19:21.972Z,957.0170288
2023-05-25T16:20:23.432Z,957.0772095
2023-05-25T16:21:24.125Z,957.038147
2023-05-25T16:22:24.837Z,957.0609131
2023-05-25T16:23:26.414Z,957.0957642
2023-05-25T16:24:27.314Z,957.0714111
2023-05-25T16:25:28.811Z,957.0656128
2023-05-25T16:26:29.551Z,957.0512695
2023-05-25T16:27:30.360Z,957.1174316
2023-05-25T16:28:31.029Z,957.0861816
2023-05-25T16:29:32.261Z,957.1090698
2023-05-25T16:30:33.919Z,957.0890503
2023-05-25T16:31:34.793Z,957.1353149
2023-05-25T16:32:35.443Z,957.1502075
2023-05-25T16:33:36.184Z,957.1314697
2023-05-25T16:34:37.014Z,957.1462402
2023-05-25T16:35:37.753Z,957.1113281
2023-05-25T16:36:38.504Z,957.1546021
2023-05-25T16:38:10.783Z,957.1428223
2023-05-25T16:39:11.497Z,957.1134644
2023-05-25T16:40:12.275Z,957.1462402
2023-05-25T16:41:13.913Z,957.1741333
2023-05-25T16:42:14.680Z,957.1659546
2023-05-25T16:43:15.375Z,957.1584473
2023-05-25T16:44:16.929Z,957.2054443
2023-05-25T16:45:18.442Z,957.2191162
2023-05-25T16:46:19.252Z,957.2363892
2023-05-25T16:47:21.472Z,957.2242432
2023-05-25T16:48:23.248Z,957.2521973
2023-05-25T16:49:22.946Z,957.2354736
2023-05-25T16:50:23.677Z,957.2443848
2023-05-25T16:51:24.423Z,957.2053223
2023-05-25T16:52:25.273Z,957.2268677
2023-05-25T16:53:25.988Z,957.2224731
2023-05-25T16:54:26.810Z,957.2432861
2023-05-25T16:55:27.613Z,957.220459
2023-05-25T16:56:29.589Z,957.2636108
2023-05-25T16:57:31.003Z,957.288147
2023-05-25T16:58:31.747Z,957.2694702
2023-05-25T16:59:32.503Z,957.1920166
2023-05-25T17:00:33.290Z,957.2736816
2023-05-25T17:01:34.884Z,957.2792358
2023-05-25T17:02:36.548Z,957.2770386
2023-05-25T17:03:37.291Z,957.2770386
2023-05-25T17:04:37.906Z,957.2487793
2023-05-25T17:05:39.070Z,957.2306519
2023-05-25T17:07:11.200Z,957.2601318
2023-05-25T17:08:12.968Z,957.276123
2023-05-25T17:09:13.702Z,957.2425537
2023-05-25T17:10:14.520Z,957.2504883
2023-05-25T17:11:15.977Z,957.1929932
2023-05-25T17:12:17.471Z,957.2089233
2023-05-25T17:13:18.357Z,957.236084
2023-05-25T17:14:19.134Z,957.2022705
2023-05-25T17:15:19.948Z,957.223877
2023-05-25T17:16:20.804Z,957.1851807
2023-05-25T17:17:22.490Z,957.2478027
2023-05-25T17:18:23.161Z,957.2672119
2023-05-25T17:19:23.887Z,957.2910767
2023-05-25T17:20:24.783Z,957.2860718
2023-05-25T17:21:26.318Z,957.2337646
2023-05-25T17:22:27.982Z,957.241333
2023-05-25T17:23:28.958Z,957.2776489
2023-05-25T17:24:29.840Z,957.244873
2023-05-25T17:25:30.647Z,957.2960815
2023-05-25T17:26:31.354Z,957.3183594
2023-05-25T17:27:32.212Z,957.2828369
2023-05-25T17:28:32.998Z,957.2843018
2023-05-25T17:29:34.404Z,957.3126831
2023-05-25T17:30:35.243Z,957.2980957
2023-05-25T17:31:36.792Z,957.3079834
2023-05-25T17:32:38.482Z,957.2538452
2023-05-25T17:34:09.579Z,957.284668
2023-05-25T17:35:10.280Z,957.3182983
2023-05-25T17:36:11.100Z,957.2902832
2023-05-25T17:37:11.834Z,957.3099976
2023-05-25T17:38:43.781Z,957.3464355
2023-05-25T17:40:14.977Z,957.3596802
2023-05-25T17:41:16.432Z,957.3699341
2023-05-25T17:42:17.228Z,957.3904419
2023-05-25T17:43:18.004Z,957.373291
2023-05-25T17:44:19.524Z,957.3585205
2023-05-25T17:45:20.425Z,957.3948975
2023-05-25T17:46:21.271Z,957.3748169
2023-05-25T17:47:23.489Z,957.4143066
2023-05-25T17:48:24.332Z,957.3826294
2023-05-25T17:49:25.220Z,957.3931274
2023-05-25T17:50:26.142Z,957.3809204
2023-05-25T17:51:27.456Z,957.4129639
2023-05-25T17:52:28.196Z,957.4378052
2023-05-25T17:53:28.948Z,957.4137573
2023-05-25T17:54:29.678Z,957.4335938
2023-05-25T17:55:30.562Z,957.4459229
2023-05-25T17:56:31.467Z,957.4405518
2023-05-25T17:57:32.360Z,957.4417114
2023-05-25T17:58:33.229Z,957.4770508
2023-05-25T17:59:34.910Z,957.4519043
2023-05-25T18:00:35.844Z,957.4706421
2023-05-25T18:01:38.720Z,957.5078125
2023-05-25T18:03:10.659Z,957.5239258
2023-05-25T18:04:11.605Z,957.5093994
2023-05-25T18:05:12.369Z,957.5441895
2023-05-25T18:06:13.887Z,957.5500488
2023-05-25T18:07:14.603Z,957.5480957
2023-05-25T18:08:16.405Z,957.5407715
2023-05-25T18:09:17.291Z,957.5596924
2023-05-25T18:10:18.311Z,957.6032104
2023-05-25T18:11:20.052Z,957.5722046
2023-05-25T18:12:21.494Z,957.5709229
2023-05-25T18:13:22.314Z,957.5754395
2023-05-25T18:14:23.133Z,957.6173706
2023-05-25T18:15:24.905Z,957.6126709
2023-05-25T18:16:25.802Z,957.5775146
2023-05-25T18:17:27.499Z,957.6020508
2023-05-25T18:18:28.291Z,957.5997925
2023-05-25T18:19:29.071Z,957.5449219
2023-05-25T18:20:29.917Z,957.5289307
2023-05-25T18:21:31.511Z,957.5307617
2023-05-25T18:22:32.352Z,957.4915771
2023-05-25T18:23:34.053Z,957.4951782
2023-05-25T18:24:35.492Z,957.5495605
2023-05-25T18:25:36.298Z,957.5610352
2023-05-25T18:26:37.093Z,957.578064
2023-05-25T18:28:08.910Z,957.5812988
2023-05-25T18:29:10.521Z,957.632019
2023-05-25T18:30:11.425Z,957.6799316
2023-05-25T18:31:12.298Z,957.6693726
2023-05-25T18:32:13.983Z,957.6400146
2023-05-25T18:33:14.980Z,957.6415405
2023-05-25T18:34:16.490Z,957.6467285
2023-05-25T18:35:17.344Z,957.6137695
2023-05-25T18:36:18.130Z,957.6428223
2023-05-25T18:37:19.530Z,957.6315918
2023-05-25T18:38:20.429Z,957.6209106
2023-05-25T18:39:21.276Z,957.6465454
2023-05-25T18:40:22.253Z,957.6309204
2023-05-25T18:41:23.990Z,957.6484375
2023-05-25T18:42:25.532Z,957.6523438
2023-05-25T18:43:26.331Z,957.6600952
2023-05-25T18:44:27.208Z,957.6376343
2023-05-25T18:45:28.995Z,957.6543579
2023-05-25T18:46:29.931Z,957.6133423
2023-05-25T18:47:31.545Z,957.6398315
2023-05-25T18:48:32.330Z,957.6882935
2023-05-25T18:49:33.313Z,957.6612549
2023-05-25T18:50:34.248Z,957.6681519
2023-05-25T18:51:36.071Z,957.6652832
2023-05-25T18:52:36.926Z,957.6967163
2023-05-25T18:54:08.653Z,957.664856
2023-05-25T18:55:09.609Z,957.6853638
2023-05-25T18:56:10.619Z,957.651001
2023-05-25T18:57:11.597Z,957.6912231
2023-05-25T18:58:12.511Z,957.7006226
2023-05-25T18:59:14.491Z,957.7228394
2023-05-25T19:00:15.278Z,957.762207
2023-05-25T19:01:16.204Z,957.7391968
2023-05-25T19:02:18.283Z,957.7712402
2023-05-25T19:03:20.236Z,957.8091431
2023-05-25T19:04:21.074Z,957.7927856
2023-05-25T19:05:22.344Z,957.7961426
2023-05-25T19:06:23.566Z,957.7879639
2023-05-25T19:07:24.557Z,957.7626343
2023-05-25T19:08:25.489Z,957.7659302
2023-05-25T19:09:26.261Z,957.7686157
2023-05-25T19:10:27.306Z,957.7924194
2023-05-25T19:11:28.515Z,957.7686157
2023-05-25T19:12:30.130Z,957.8004761
2023-05-25T19:13:31.246Z,957.7511597
2023-05-25T19:14:32.200Z,957.7062378
2023-05-25T19:15:34.039Z,957.7446899
2023-05-25T19:16:34.974Z,957.7365723
2023-05-25T19:17:36.496Z,957.6846924
2023-05-25T19:19:08.429Z,957.7357788
2023-05-25T19:20:09.423Z,957.7185669
2023-05-25T19:21:10.370Z,957.7053833
2023-05-25T19:22:12.016Z,957.7384644
2023-05-25T19:23:14.003Z,957.7645264
2023-05-25T19:24:14.969Z,957.7215576
2023-05-25T19:25:15.949Z,957.7348633
2023-05-25T19:26:16.814Z,957.7740479
2023-05-25T19:27:18.527Z,957.7948608
2023-05-25T19:28:19.472Z,957.8269653
2023-05-25T19:29:21.144Z,957.8826294
2023-05-25T19:30:22.114Z,957.8998413
2023-05-25T19:31:22.950Z,957.9328613
2023-05-25T19:32:24.729Z,957.9173584
2023-05-25T19:33:26.533Z,957.9246826
2023-05-25T19:34:27.643Z,957.9403076
2023-05-25T19:35:28.822Z,957.9047852
2023-05-25T19:36:29.868Z,957.9400635
2023-05-25T19:37:31.471Z,957.9452515
2023-05-25T19:38:41.125Z,957.9459229
2023-05-25T19:39:33.215Z,957.9984131
2023-05-25T19:40:34.130Z,958.0232544
2023-05-25T19:41:35.046Z,958.0142822
2023-05-25T19:42:36.554Z,958.0337524
2023-05-25T19:44:07.695Z,958.0200195
2023-05-25T19:45:09.537Z,958.0435181
2023-05-25T19:46:10.635Z,958.0206299
2023-05-25T19:47:12.652Z,958.0356445
2023-05-25T19:48:13.933Z,958.0395508
2023-05-25T19:49:14.857Z,958.03125
2023-05-25T19:50:15.822Z,958.0715332
2023-05-25T19:51:16.713Z,958.0878296
2023-05-25T19:52:18.595Z,958.0929565
2023-05-25T19:53:19.597Z,958.1447144
2023-05-25T19:54:20.493Z,958.104248
2023-05-25T19:55:22.026Z,958.1724854
2023-05-25T19:56:22.932Z,958.1765747
2023-05-25T19:57:23.987Z,958.1207886
2023-05-25T19:58:25.831Z,958.1953125
2023-05-25T19:59:26.906Z,958.1889038
2023-05-25T20:00:27.779Z,958.194397
2023-05-25T20:01:28.856Z,958.180481
2023-05-25T20:02:30.632Z,958.1804199
2023-05-25T20:03:31.901Z,958.1771851
2023-05-25T20:04:33.541Z,958.1984253
2023-05-25T20:05:34.332Z,958.1953125
2023-05-25T20:06:35.296Z,958.1713867
2023-05-25T20:07:37.052Z,958.1582642
2023-05-25T20:09:08.651Z,958.159668
2023-05-25T20:10:09.671Z,958.1270142
2023-05-25T20:11:10.520Z,958.1530762
2023-05-25T20:12:12.048Z,958.15802
2023-05-25T20:13:13.570Z,958.1359253
2023-05-25T20:14:15.044Z,958.1704102
2023-05-25T20:15:16.153Z,958.1762695
2023-05-25T20:16:18.058Z,958.1882935
2023-05-25T20:17:18.954Z,958.2120972
2023-05-25T20:18:20.034Z,958.2051392
2023-05-25T20:19:22.215Z,958.2545166
2023-05-25T20:20:22.266Z,958.2717285
2023-05-25T20:21:23.198Z,958.2592163
2023-05-25T20:22:25.013Z,958.2451782
2023-05-25T20:23:25.904Z,958.223999
2023-05-25T20:24:27.150Z,958.269043
2023-05-25T20:25:28.130Z,958.2803345
2023-05-25T20:26:29.137Z,958.3222046
2023-05-25T20:27:31.066Z,958.3197021
2023-05-25T20:28:31.887Z,958.2801514
2023-05-25T20:29:32.745Z,958.3590698
2023-05-25T20:30:33.695Z,958.3477173
2023-05-25T20:31:34.845Z,958.2868652
2023-05-25T20:32:36.620Z,958.2606201
2023-05-25T20:34:08.504Z,958.2998657
2023-05-25T20:35:09.527Z,958.2446899
2023-05-25T20:36:10.484Z,958.2544556
2023-05-25T20:37:11.650Z,958.2658081
2023-05-25T20:38:13.916Z,958.2148438
2023-05-25T20:39:14.670Z,958.2445068
2023-05-25T20:40:15.540Z,958.2683105
2023-05-25T20:41:16.443Z,958.2484131
2023-05-25T20:42:18.078Z,958.2492065
2023-05-25T20:43:19.149Z,958.2485352
2023-05-25T20:44:20.485Z,958.2630615
2023-05-25T20:45:21.514Z,958.2640381
2023-05-25T20:46:23.046Z,958.2785645
2023-05-25T20:47:24.910Z,958.2861938
2023-05-25T20:48:26.563Z,958.322876
2023-05-25T20:49:27.453Z,958.3255615
2023-05-25T20:50:28.303Z,958.2835693
2023-05-25T20:51:29.374Z,958.2793579
2023-05-25T20:52:31.031Z,958.2843628
2023-05-25T20:53:31.886Z,958.2639771
2023-05-25T20:54:33.540Z,958.2687378
2023-05-25T20:55:34.320Z,958.2565918
2023-05-25T20:56:35.504Z,958.2193604
2023-05-25T20:58:07.002Z,958.2399902
2023-05-25T20:59:08.580Z,958.2089233
2023-05-25T21:00:09.474Z,958.1784668
2023-05-25T21:01:11.122Z,958.1906128
2023-05-25T21:02:12.105Z,958.1521606
2023-05-25T21:03:14.219Z,958.1637573
2023-05-25T21:04:15.119Z,958.1472168
2023-05-25T21:05:16.577Z,958.1784668
2023-05-25T21:06:17.474Z,958.1882935
2023-05-25T21:07:19.620Z,958.1734619
2023-05-25T21:08:20.624Z,958.168457
2023-05-25T21:09:21.490Z,958.1317139
2023-05-25T21:10:22.305Z,958.1586914
2023-05-25T21:11:23.864Z,958.1848145
2023-05-25T21:12:24.634Z,958.140625
2023-05-25T21:13:26.483Z,958.1652222
2023-05-25T21:14:27.654Z,958.170166
2023-05-25T21:15:29.096Z,958.1932983
2023-05-25T21:16:29.991Z,958.1865845
2023-05-25T21:17:31.486Z,958.1865845
2023-05-25T21:18:32.418Z,958.1809082
2023-05-25T21:19:34.096Z,958.1659546
2023-05-25T21:20:35.131Z,958.1709595
2023-05-25T21:22:06.791Z,958.1896973
2023-05-25T21:23:08.616Z,958.2373657
2023-05-25T21:24:09.735Z,958.241394
2023-05-25T21:25:10.758Z,958.2340698
2023-05-25T21:26:11.600Z,958.3027344
2023-05-25T21:27:12.374Z,958.2445068
2023-05-25T21:28:14.038Z,958.2945557
2023-05-25T21:29:15.037Z,958.2839355
2023-05-25T21:30:16.021Z,958.2945557
2023-05-25T21:31:17.143Z,958.3034668
2023-05-25T21:32:18.549Z,958.2746582
2023-05-25T21:33:20.034Z,958.2770996
2023-05-25T21:34:21.077Z,958.2991333
2023-05-25T21:35:22.097Z,958.2672119
2023-05-25T21:36:23.103Z,958.2718506
2023-05-25T21:37:23.964Z,958.2833862
2023-05-25T21:38:25.443Z,958.2956543
2023-05-25T21:39:26.405Z,958.276123
2023-05-25T21:40:27.291Z,958.2371826
2023-05-25T21:41:28.277Z,958.229126
2023-05-25T21:42:29.122Z,958.2217407
2023-05-25T21:43:30.990Z,958.2624512
2023-05-25T21:44:31.809Z,958.2058105
2023-05-25T21:45:33.372Z,958.2262573
2023-05-25T21:46:35.560Z,958.204834
2023-05-25T21:48:06.947Z,958.1616211
2023-05-25T21:49:07.741Z,958.1581421
2023-05-25T21:50:08.714Z,958.1876831
2023-05-25T21:51:09.668Z,958.178772
2023-05-25T21:52:10.564Z,958.149292
2023-05-25T21:53:12.698Z,958.1482544
2023-05-25T21:54:13.764Z,958.1376343
2023-05-25T21:55:14.804Z,958.1245117
2023-05-25T21:56:15.629Z,958.1187744
2023-05-25T21:57:17.038Z,958.1500244
2023-05-25T21:58:18.127Z,958.1431274
2023-05-25T21:59:19.600Z,958.1226807
2023-05-25T22:00:20.453Z,958.1679688
2023-05-25T22:01:21.372Z,958.1749268
2023-05-25T22:02:23.239Z,958.2206421
2023-05-25T22:03:24.669Z,958.178772
2023-05-25T22:04:25.547Z,958.1690674
2023-05-25T22:05:26.580Z,958.2180176
2023-05-25T22:06:27.461Z,958.1620483
2023-05-25T22:07:28.459Z,958.1671143
2023-05-25T22:08:29.597Z,958.1768799
2023-05-25T22:09:30.797Z,958.170105
2023-05-25T22:10:31.788Z,958.1691895
2023-05-25T22:11:32.672Z,958.1821899
2023-05-25T22:12:33.698Z,958.1456299
2023-05-25T22:14:06.022Z,958.201355
2023-05-25T22:15:06.976Z,958.1923218
2023-05-25T22:16:08.669Z,958.1984863
2023-05-25T22:17:10.630Z,958.225647
2023-05-25T22:18:11.597Z,958.2090454
2023-05-25T22:19:12.462Z,958.2390747
2023-05-25T22:20:13.942Z,958.1891479
2023-05-25T22:21:14.888Z,958.1968994
2023-05-25T22:22:16.610Z,958.1953735
2023-05-25T22:23:18.018Z,958.1748657
2023-05-25T22:24:18.861Z,958.2001343
2023-05-25T22:25:19.813Z,958.2016602
2023-05-25T22:26:20.746Z,958.2089844
2023-05-25T22:27:21.665Z,958.244873
2023-05-25T22:28:22.512Z,958.2642212
2023-05-25T22:29:23.897Z,958.2529907
2023-05-25T22:30:25.027Z,958.2166138
2023-05-25T22:31:26.043Z,958.2354126
2023-05-25T22:32:27.201Z,958.2449951
2023-05-25T22:33:30.028Z,958.2532959
2023-05-25T22:34:30.990Z,958.2753296
2023-05-25T22:35:31.944Z,958.2636108
2023-05-25T22:36:33.040Z,958.2957764
2023-05-25T22:37:34.076Z,958.2840576
2023-05-25T22:39:06.054Z,958.302124
2023-05-25T22:40:06.984Z,958.2520142
2023-05-25T22:41:07.855Z,958.2759399
2023-05-25T22:42:08.789Z,958.2445068
2023-05-25T22:43:10.621Z,958.2592163
2023-05-25T22:44:12.052Z,958.2520142
2023-05-25T22:45:13.588Z,958.2494507
2023-05-25T22:46:14.397Z,958.2567749
2023-05-25T22:47:16.096Z,958.2977295
2023-05-25T22:48:18.067Z,958.2722778
2023-05-25T22:49:19.066Z,958.2959595
2023-05-25T22:50:20.030Z,958.2484131
2023-05-25T22:51:20.952Z,958.2943115
2023-05-25T22:52:21.880Z,958.279541
2023-05-25T22:53:23.570Z,958.2884521
2023-05-25T22:54:24.465Z,958.2451782
2023-05-25T22:55:25.438Z,958.2058716
2023-05-25T22:56:26.351Z,958.2255249
2023-05-25T22:57:27.171Z,958.2023315
2023-05-25T22:58:28.148Z,958.189209
2023-05-25T22:59:30.680Z,958.2056274
2023-05-25T23:00:31.725Z,958.232605
2023-05-25T23:01:32.762Z,958.1834106
2023-05-25T23:02:33.587Z,958.1364746
2023-05-25T23:04:06.264Z,958.140564
2023-05-25T23:05:07.110Z,958.1543579
2023-05-25T23:06:08.058Z,958.1132202
2023-05-25T23:07:08.983Z,958.1500244
2023-05-25T23:08:10.025Z,958.1553955
2023-05-25T23:09:10.987Z,958.1345825
2023-05-25T23:10:11.951Z,958.1621704
2023-05-25T23:11:43.756Z,958.1663818
2023-05-25T23:13:16.023Z,958.1192017
2023-05-25T23:14:17.569Z,958.138916
2023-05-25T23:15:18.625Z,958.1726685
2023-05-25T23:16:19.588Z,958.1972656
2023-05-25T23:17:21.643Z,958.1898193
2023-05-25T23:18:22.495Z,958.1813965
2023-05-25T23:19:23.596Z,958.1730957
2023-05-25T23:20:24.579Z,958.2075195
2023-05-25T23:21:25.546Z,958.2305298
2023-05-25T23:22:26.567Z,958.1885986
2023-05-25T23:23:28.110Z,958.1732788
2023-05-25T23:24:29.970Z,958.1755371
2023-05-25T23:25:30.823Z,958.104248
2023-05-25T23:26:31.769Z,958.1239014
2023-05-25T23:27:33.569Z,958.1353149
2023-05-25T23:29:06.120Z,958.0828857
2023-05-25T23:30:06.993Z,958.1173706
2023-05-25T23:31:07.774Z,958.1081543
2023-05-25T23:32:08.729Z,958.1294556
2023-05-25T23:33:10.694Z,958.1107788
2023-05-25T23:34:12.069Z,958.0999756
2023-05-25T23:35:12.956Z,958.1335449
2023-05-25T23:36:14.010Z,958.1213989
2023-05-25T23:37:15.653Z,958.133606
2023-05-25T23:38:16.650Z,958.1278076
2023-05-25T23:39:17.708Z,958.1487427
2023-05-25T23:40:18.693Z,958.1216431
2023-05-25T23:41:19.506Z,958.1305542
2023-05-25T23:42:20.357Z,958.1213989
2023-05-25T23:43:21.269Z,958.1166382
2023-05-25T23:44:23.081Z,958.1425171
2023-05-25T23:45:24.075Z,958.1193848
2023-05-25T23:46:25.198Z,958.1135864
2023-05-25T23:47:26.572Z,958.1176758
2023-05-25T23:48:27.464Z,958.1052246
2023-05-25T23:49:29.109Z,958.133728
2023-05-25T23:50:30.111Z,958.1574707
2023-05-25T23:51:31.092Z,958.1195068
2023-05-25T23:52:31.984Z,958.1292114
2023-05-25T23:53:32.822Z,958.1035767
2023-05-25T23:55:05.221Z,958.1173706
2023-05-25T23:56:06.239Z,958.1312256
2023-05-25T23:57:07.185Z,958.0490723
2023-05-25T23:58:08.178Z,958.0979614
2023-05-25T23:59:09.574Z,958.0914917
